Five Forks, West Virginia
Current Conditions -  °F | °C
As of 10:53 AM on Friday 24 Oct 2014 (Local Time) from KPKB Reporting Station
Light Fog Light Fog  
Wind Chill: 47°   Ceiling: Unl
Heat Index: 47°   Visibility: 8mi
Dew Point: 45°   Wind: 0mph
Humidity: 93%   Direction: NA
Pressure: 30.15"   Gusts: NA
Location:  38.9679°N, 81.1579°W
Report Text: KPKB 241453Z 00000KT 8SM BCFG FEW002 08/07 A3015 RMK AO2 SLP214 FG SCT000 VIS N-E 1 T00830072 50001
Loading
Personal Weather Stations






























Interactive Weather Map
Tropical Storm Tracking
New forecast layout! Learn more

10-Day Weather Forecast

Advertisements
Track Severe Weather on mobile